sensor_id;sensor_type;location;lat;lon;timestamp;noise_LAeq;noise_LA_min;noise_LA_max;noise_LA01;noise_LA95
72415;Laerm;60995;52.154;4.498;2022-12-18T00:00:26;45.19;39.22;60.88;;
72415;Laerm;60995;52.154;4.498;2022-12-18T00:02:42;46.79;40.11;61.24;;
72415;Laerm;60995;52.154;4.498;2022-12-18T00:04:59;44.89;39.45;58.16;;
72415;Laerm;60995;52.154;4.498;2022-12-18T00:07:15;46.56;39.86;58.93;;
72415;Laerm;60995;52.154;4.498;2022-12-18T00:09:31;46.61;39.75;63.52;;
72415;Laerm;60995;52.154;4.498;2022-12-18T00:11:47;45.42;39.24;66.61;;
72415;Laerm;60995;52.154;4.498;2022-12-18T00:14:03;46.00;40.10;60.36;;
72415;Laerm;60995;52.154;4.498;2022-12-18T00:16:21;44.66;39.50;61.18;;
72415;Laerm;60995;52.154;4.498;2022-12-18T00:18:37;47.81;40.08;64.76;;
72415;Laerm;60995;52.154;4.498;2022-12-18T00:20:53;45.39;39.29;60.66;;
72415;Laerm;60995;52.154;4.498;2022-12-18T00:23:09;44.06;38.54;60.04;;
72415;Laerm;60995;52.154;4.498;2022-12-18T00:25:25;43.39;38.12;58.16;;
72415;Laerm;60995;52.154;4.498;2022-12-18T00:27:41;45.38;38.21;60.13;;
72415;Laerm;60995;52.154;4.498;2022-12-18T00:29:57;45.98;38.75;59.06;;
72415;Laerm;60995;52.154;4.498;2022-12-18T00:32:13;46.42;38.04;62.13;;
72415;Laerm;60995;52.154;4.498;2022-12-18T00:34:29;43.09;38.53;59.43;;
72415;Laerm;60995;52.154;4.498;2022-12-18T00:36:47;46.05;38.74;60.38;;
72415;Laerm;60995;52.154;4.498;2022-12-18T00:39:04;47.03;38.36;59.44;;
72415;Laerm;60995;52.154;4.498;2022-12-18T00:41:21;43.62;36.98;61.38;;
72415;Laerm;60995;52.154;4.498;2022-12-18T00:43:56;44.80;37.59;60.88;;
72415;Laerm;60995;52.154;4.498;2022-12-18T00:46:12;45.67;38.49;59.60;;
72415;Laerm;60995;52.154;4.498;2022-12-18T00:48:29;43.66;37.67;61.12;;
72415;Laerm;60995;52.154;4.498;2022-12-18T00:50:45;45.70;38.08;59.06;;
72415;Laerm;60995;52.154;4.498;2022-12-18T00:53:01;44.51;37.49;58.75;;
72415;Laerm;60995;52.154;4.498;2022-12-18T00:55:18;46.12;37.10;67.20;;
72415;Laerm;60995;52.154;4.498;2022-12-18T00:57:34;42.07;37.10;58.20;;
72415;Laerm;60995;52.154;4.498;2022-12-18T00:59:50;44.45;37.21;60.34;;
72415;Laerm;60995;52.154;4.498;2022-12-18T01:02:06;41.98;36.16;60.49;;
72415;Laerm;60995;52.154;4.498;2022-12-18T01:04:22;42.88;37.01;60.46;;
72415;Laerm;60995;52.154;4.498;2022-12-18T01:06:38;44.84;37.53;60.62;;
72415;Laerm;60995;52.154;4.498;2022-12-18T01:08:54;43.12;37.14;59.09;;
72415;Laerm;60995;52.154;4.498;2022-12-18T01:11:13;42.65;37.34;57.66;;
72415;Laerm;60995;52.154;4.498;2022-12-18T01:13:29;45.42;37.53;65.26;;
72415;Laerm;60995;52.154;4.498;2022-12-18T01:15:49;45.45;37.07;60.11;;
72415;Laerm;60995;52.154;4.498;2022-12-18T01:18:06;42.52;37.23;60.34;;
72415;Laerm;60995;52.154;4.498;2022-12-18T01:20:22;42.42;37.60;51.24;;
72415;Laerm;60995;52.154;4.498;2022-12-18T01:22:38;42.69;37.51;58.50;;
72415;Laerm;60995;52.154;4.498;2022-12-18T01:24:54;43.09;37.26;55.60;;
72415;Laerm;60995;52.154;4.498;2022-12-18T01:27:10;40.91;37.26;48.22;;
72415;Laerm;60995;52.154;4.498;2022-12-18T01:29:27;47.30;37.82;61.45;;
72415;Laerm;60995;52.154;4.498;2022-12-18T01:31:43;44.26;37.55;63.57;;
72415;Laerm;60995;52.154;4.498;2022-12-18T01:34:04;44.79;37.54;68.41;;
72415;Laerm;60995;52.154;4.498;2022-12-18T01:36:24;41.21;37.00;47.51;;
72415;Laerm;60995;52.154;4.498;2022-12-18T01:38:40;44.28;37.04;57.26;;
72415;Laerm;60995;52.154;4.498;2022-12-18T01:41:00;46.56;37.62;56.27;;
72415;Laerm;60995;52.154;4.498;2022-12-18T01:43:17;43.75;37.34;60.47;;
72415;Laerm;60995;52.154;4.498;2022-12-18T01:45:33;41.98;37.57;49.31;;
72415;Laerm;60995;52.154;4.498;2022-12-18T01:47:59;45.47;37.34;61.58;;
72415;Laerm;60995;52.154;4.498;2022-12-18T01:50:27;50.30;42.20;55.42;;
72415;Laerm;60995;52.154;4.498;2022-12-18T01:53:07;48.73;37.15;55.63;;
72415;Laerm;60995;52.154;4.498;2022-12-18T01:55:30;41.85;36.93;51.37;;
72415;Laerm;60995;52.154;4.498;2022-12-18T01:57:47;42.52;37.25;52.10;;
72415;Laerm;60995;52.154;4.498;2022-12-18T02:00:08;45.13;36.26;53.60;;
72415;Laerm;60995;52.154;4.498;2022-12-18T02:02:27;49.66;42.95;53.78;;
72415;Laerm;60995;52.154;4.498;2022-12-18T02:04:45;43.47;36.36;57.19;;
72415;Laerm;60995;52.154;4.498;2022-12-18T02:07:10;42.47;36.91;51.37;;
72415;Laerm;60995;52.154;4.498;2022-12-18T02:09:44;45.59;37.16;58.10;;
72415;Laerm;60995;52.154;4.498;2022-12-18T02:12:13;49.93;45.67;58.51;;
72415;Laerm;60995;52.154;4.498;2022-12-18T02:20:18;47.41;37.56;54.70;;
72415;Laerm;60995;52.154;4.498;2022-12-18T02:25:16;42.94;37.48;57.65;;
72415;Laerm;60995;52.154;4.498;2022-12-18T02:27:37;41.57;36.43;56.68;;
72415;Laerm;60995;52.154;4.498;2022-12-18T02:29:56;46.07;39.20;52.28;;
72415;Laerm;60995;52.154;4.498;2022-12-18T02:32:18;49.80;43.66;60.53;;
72415;Laerm;60995;52.154;4.498;2022-12-18T02:34:38;41.42;36.76;53.36;;
72415;Laerm;60995;52.154;4.498;2022-12-18T02:36:56;45.79;37.01;57.96;;
72415;Laerm;60995;52.154;4.498;2022-12-18T02:39:13;44.58;38.56;51.97;;
72415;Laerm;60995;52.154;4.498;2022-12-18T02:41:31;50.19;44.95;55.47;;
72415;Laerm;60995;52.154;4.498;2022-12-18T02:43:49;46.02;37.85;52.52;;
72415;Laerm;60995;52.154;4.498;2022-12-18T02:46:35;44.79;37.29;54.99;;
72415;Laerm;60995;52.154;4.498;2022-12-18T02:48:57;43.32;36.95;54.63;;
72415;Laerm;60995;52.154;4.498;2022-12-18T02:51:29;43.04;37.88;52.69;;
72415;Laerm;60995;52.154;4.498;2022-12-18T02:53:53;43.48;38.39;50.40;;
72415;Laerm;60995;52.154;4.498;2022-12-18T02:56:17;42.90;37.53;49.72;;
72415;Laerm;60995;52.154;4.498;2022-12-18T03:01:15;44.14;38.17;52.12;;
72415;Laerm;60995;52.154;4.498;2022-12-18T03:06:06;42.45;37.47;53.01;;
72415;Laerm;60995;52.154;4.498;2022-12-18T03:08:33;43.35;36.88;52.64;;
72415;Laerm;60995;52.154;4.498;2022-12-18T03:11:06;43.10;37.55;51.69;;
72415;Laerm;60995;52.154;4.498;2022-12-18T03:13:31;43.99;36.78;52.90;;
72415;Laerm;60995;52.154;4.498;2022-12-18T03:15:51;42.93;38.12;52.41;;
72415;Laerm;60995;52.154;4.498;2022-12-18T03:18:13;43.02;37.28;58.50;;
72415;Laerm;60995;52.154;4.498;2022-12-18T03:20:32;46.42;38.76;57.95;;
72415;Laerm;60995;52.154;4.498;2022-12-18T03:22:55;47.22;38.66;57.51;;
72415;Laerm;60995;52.154;4.498;2022-12-18T03:25:14;43.93;38.21;59.35;;
72415;Laerm;60995;52.154;4.498;2022-12-18T03:27:33;45.19;38.34;60.78;;
72415;Laerm;60995;52.154;4.498;2022-12-18T03:30:00;44.01;37.62;59.89;;
72415;Laerm;60995;52.154;4.498;2022-12-18T03:32:30;45.09;37.52;59.72;;
72415;Laerm;60995;52.154;4.498;2022-12-18T03:34:49;47.01;39.26;59.85;;
72415;Laerm;60995;52.154;4.498;2022-12-18T03:37:06;46.29;39.03;59.63;;
72415;Laerm;60995;52.154;4.498;2022-12-18T03:39:23;44.94;39.25;60.14;;
72415;Laerm;60995;52.154;4.498;2022-12-18T03:44:46;45.58;38.23;60.58;;
72415;Laerm;60995;52.154;4.498;2022-12-18T03:47:18;46.70;38.95;60.93;;
72415;Laerm;60995;52.154;4.498;2022-12-18T03:49:39;46.90;39.17;61.68;;
72415;Laerm;60995;52.154;4.498;2022-12-18T03:52:06;48.17;41.33;60.06;;
72415;Laerm;60995;52.154;4.498;2022-12-18T03:54:26;48.89;40.90;58.72;;
72415;Laerm;60995;52.154;4.498;2022-12-18T03:56:48;49.14;40.87;60.65;;
72415;Laerm;60995;52.154;4.498;2022-12-18T03:59:09;49.14;39.85;59.55;;
72415;Laerm;60995;52.154;4.498;2022-12-18T04:01:33;48.75;41.74;59.63;;
72415;Laerm;60995;52.154;4.498;2022-12-18T04:03:50;48.61;42.00;60.54;;
72415;Laerm;60995;52.154;4.498;2022-12-18T04:06:07;48.79;43.25;56.03;;
72415;Laerm;60995;52.154;4.498;2022-12-18T04:08:24;48.51;42.88;55.50;;
72415;Laerm;60995;52.154;4.498;2022-12-18T04:10:41;47.40;41.48;54.28;;
72415;Laerm;60995;52.154;4.498;2022-12-18T04:12:57;47.99;42.48;59.16;;
72415;Laerm;60995;52.154;4.498;2022-12-18T04:15:14;47.84;42.00;56.47;;
72415;Laerm;60995;52.154;4.498;2022-12-18T04:17:30;49.14;43.32;56.16;;
72415;Laerm;60995;52.154;4.498;2022-12-18T04:19:46;48.90;40.84;56.51;;
72415;Laerm;60995;52.154;4.498;2022-12-18T04:22:02;49.69;43.48;59.92;;
72415;Laerm;60995;52.154;4.498;2022-12-18T04:24:18;49.37;43.20;60.42;;
72415;Laerm;60995;52.154;4.498;2022-12-18T04:26:34;49.94;44.01;59.45;;
72415;Laerm;60995;52.154;4.498;2022-12-18T04:28:50;48.83;41.51;59.04;;
72415;Laerm;60995;52.154;4.498;2022-12-18T04:31:06;49.22;42.03;61.49;;
72415;Laerm;60995;52.154;4.498;2022-12-18T04:33:22;48.99;43.83;59.51;;
72415;Laerm;60995;52.154;4.498;2022-12-18T04:35:39;47.74;42.71;54.92;;
72415;Laerm;60995;52.154;4.498;2022-12-18T04:37:55;49.10;41.71;57.27;;
72415;Laerm;60995;52.154;4.498;2022-12-18T04:40:13;50.04;44.72;59.72;;
72415;Laerm;60995;52.154;4.498;2022-12-18T04:42:29;50.77;43.58;63.51;;
72415;Laerm;60995;52.154;4.498;2022-12-18T04:44:45;51.90;44.93;58.51;;
72415;Laerm;60995;52.154;4.498;2022-12-18T04:47:01;50.63;44.76;60.65;;
72415;Laerm;60995;52.154;4.498;2022-12-18T04:49:17;49.49;43.34;60.68;;
72415;Laerm;60995;52.154;4.498;2022-12-18T04:51:33;49.60;42.87;62.07;;
72415;Laerm;60995;52.154;4.498;2022-12-18T04:53:49;51.15;44.61;60.79;;
72415;Laerm;60995;52.154;4.498;2022-12-18T04:56:11;51.22;44.15;59.42;;
72415;Laerm;60995;52.154;4.498;2022-12-18T04:58:28;50.83;44.48;58.88;;
72415;Laerm;60995;52.154;4.498;2022-12-18T05:00:44;52.42;45.99;61.19;;
72415;Laerm;60995;52.154;4.498;2022-12-18T05:03:01;50.69;44.52;62.49;;
72415;Laerm;60995;52.154;4.498;2022-12-18T05:05:17;49.33;43.46;55.57;;
72415;Laerm;60995;52.154;4.498;2022-12-18T05:07:34;50.95;42.31;57.77;;
72415;Laerm;60995;52.154;4.498;2022-12-18T05:09:50;51.39;43.44;62.97;;
72415;Laerm;60995;52.154;4.498;2022-12-18T05:12:06;49.72;43.67;60.78;;
72415;Laerm;60995;52.154;4.498;2022-12-18T05:14:22;51.35;44.64;61.63;;
72415;Laerm;60995;52.154;4.498;2022-12-18T05:16:38;51.33;45.22;61.43;;
72415;Laerm;60995;52.154;4.498;2022-12-18T05:18:54;49.37;44.56;59.39;;
72415;Laerm;60995;52.154;4.498;2022-12-18T05:21:10;50.91;44.14;62.48;;
72415;Laerm;60995;52.154;4.498;2022-12-18T05:23:27;50.71;44.84;57.20;;
72415;Laerm;60995;52.154;4.498;2022-12-18T05:25:49;50.92;44.72;57.02;;
72415;Laerm;60995;52.154;4.498;2022-12-18T05:28:06;50.81;44.64;59.04;;
72415;Laerm;60995;52.154;4.498;2022-12-18T05:30:22;49.50;43.70;56.72;;
72415;Laerm;60995;52.154;4.498;2022-12-18T05:32:39;51.91;45.39;58.78;;
72415;Laerm;60995;52.154;4.498;2022-12-18T05:34:55;50.30;43.77;61.88;;
72415;Laerm;60995;52.154;4.498;2022-12-18T05:37:12;50.85;43.08;57.03;;
72415;Laerm;60995;52.154;4.498;2022-12-18T05:39:29;50.30;44.42;60.18;;
72415;Laerm;60995;52.154;4.498;2022-12-18T05:41:45;50.45;44.18;58.87;;
72415;Laerm;60995;52.154;4.498;2022-12-18T05:44:02;49.85;44.39;61.50;;
72415;Laerm;60995;52.154;4.498;2022-12-18T05:46:18;48.89;43.43;57.43;;
72415;Laerm;60995;52.154;4.498;2022-12-18T05:48:35;47.96;42.85;60.74;;
72415;Laerm;60995;52.154;4.498;2022-12-18T05:50:51;48.34;43.21;58.40;;
72415;Laerm;60995;52.154;4.498;2022-12-18T05:53:08;49.09;44.06;55.82;;
72415;Laerm;60995;52.154;4.498;2022-12-18T05:55:24;49.60;43.92;67.18;;
72415;Laerm;60995;52.154;4.498;2022-12-18T05:57:40;49.35;44.13;58.84;;
72415;Laerm;60995;52.154;4.498;2022-12-18T05:59:56;49.51;44.23;55.72;;
72415;Laerm;60995;52.154;4.498;2022-12-18T06:02:12;47.54;42.63;54.93;;
72415;Laerm;60995;52.154;4.498;2022-12-18T06:04:28;46.39;41.91;53.65;;
72415;Laerm;60995;52.154;4.498;2022-12-18T06:06:44;47.27;40.79;58.54;;
72415;Laerm;60995;52.154;4.498;2022-12-18T06:09:00;48.08;41.71;60.94;;
72415;Laerm;60995;52.154;4.498;2022-12-18T06:11:19;49.19;43.75;59.85;;
72415;Laerm;60995;52.154;4.498;2022-12-18T06:13:36;49.57;43.13;58.42;;
72415;Laerm;60995;52.154;4.498;2022-12-18T06:15:52;50.11;44.36;55.77;;
72415;Laerm;60995;52.154;4.498;2022-12-18T06:18:08;51.27;44.69;60.91;;
72415;Laerm;60995;52.154;4.498;2022-12-18T06:20:24;51.39;45.37;58.34;;
72415;Laerm;60995;52.154;4.498;2022-12-18T06:22:40;51.39;44.54;58.09;;
72415;Laerm;60995;52.154;4.498;2022-12-18T06:24:56;54.67;48.05;67.08;;
72415;Laerm;60995;52.154;4.498;2022-12-18T06:27:12;53.31;46.85;61.60;;
72415;Laerm;60995;52.154;4.498;2022-12-18T06:29:29;54.37;47.67;62.42;;
72415;Laerm;60995;52.154;4.498;2022-12-18T06:31:45;54.70;48.60;62.53;;
72415;Laerm;60995;52.154;4.498;2022-12-18T06:34:04;54.19;48.98;61.07;;
72415;Laerm;60995;52.154;4.498;2022-12-18T06:36:21;53.42;47.92;59.44;;
72415;Laerm;60995;52.154;4.498;2022-12-18T06:38:38;52.76;46.92;58.96;;
72415;Laerm;60995;52.154;4.498;2022-12-18T06:40:54;52.75;46.90;60.53;;
72415;Laerm;60995;52.154;4.498;2022-12-18T06:43:11;54.59;47.07;65.74;;
72415;Laerm;60995;52.154;4.498;2022-12-18T06:45:26;52.87;46.80;59.39;;
72415;Laerm;60995;52.154;4.498;2022-12-18T06:47:43;52.97;46.64;62.90;;
72415;Laerm;60995;52.154;4.498;2022-12-18T06:49:59;52.24;46.07;66.22;;
72415;Laerm;60995;52.154;4.498;2022-12-18T06:52:15;51.63;45.84;59.84;;
72415;Laerm;60995;52.154;4.498;2022-12-18T06:54:32;51.16;45.47;61.32;;
72415;Laerm;60995;52.154;4.498;2022-12-18T06:56:48;50.90;44.43;59.61;;
72415;Laerm;60995;52.154;4.498;2022-12-18T06:59:04;52.64;46.94;63.15;;
72415;Laerm;60995;52.154;4.498;2022-12-18T07:01:21;55.19;47.58;71.35;;
72415;Laerm;60995;52.154;4.498;2022-12-18T07:03:38;52.86;46.79;61.27;;
72415;Laerm;60995;52.154;4.498;2022-12-18T07:05:54;52.87;46.35;62.90;;
72415;Laerm;60995;52.154;4.498;2022-12-18T07:08:10;53.98;46.86;63.14;;
72415;Laerm;60995;52.154;4.498;2022-12-18T07:10:26;52.81;47.03;60.55;;
72415;Laerm;60995;52.154;4.498;2022-12-18T07:12:42;53.60;47.87;59.70;;
72415;Laerm;60995;52.154;4.498;2022-12-18T07:14:58;54.27;47.96;64.55;;
72415;Laerm;60995;52.154;4.498;2022-12-18T07:17:14;54.46;48.06;62.12;;
72415;Laerm;60995;52.154;4.498;2022-12-18T07:19:30;53.79;46.95;60.50;;
72415;Laerm;60995;52.154;4.498;2022-12-18T07:21:46;54.03;47.33;62.85;;
72415;Laerm;60995;52.154;4.498;2022-12-18T07:24:03;54.40;48.35;61.92;;
72415;Laerm;60995;52.154;4.498;2022-12-18T07:26:21;54.40;48.03;67.91;;
72415;Laerm;60995;52.154;4.498;2022-12-18T07:28:38;54.68;48.11;66.37;;
72415;Laerm;60995;52.154;4.498;2022-12-18T07:30:55;54.55;47.43;69.89;;
72415;Laerm;60995;52.154;4.498;2022-12-18T07:33:11;53.83;48.45;62.53;;
72415;Laerm;60995;52.154;4.498;2022-12-18T07:35:28;54.96;48.08;69.48;;
72415;Laerm;60995;52.154;4.498;2022-12-18T07:37:44;53.12;47.27;62.49;;
72415;Laerm;60995;52.154;4.498;2022-12-18T07:40:00;54.83;48.81;69.02;;
72415;Laerm;60995;52.154;4.498;2022-12-18T07:42:16;53.74;47.34;62.89;;
72415;Laerm;60995;52.154;4.498;2022-12-18T07:44:47;55.09;48.48;67.52;;
72415;Laerm;60995;52.154;4.498;2022-12-18T07:47:03;55.38;49.01;65.23;;
72415;Laerm;60995;52.154;4.498;2022-12-18T07:49:19;55.08;49.69;62.65;;
72415;Laerm;60995;52.154;4.498;2022-12-18T07:51:35;55.21;49.30;66.21;;
72415;Laerm;60995;52.154;4.498;2022-12-18T07:53:51;54.47;48.48;62.43;;
72415;Laerm;60995;52.154;4.498;2022-12-18T07:56:09;54.65;48.08;60.98;;
72415;Laerm;60995;52.154;4.498;2022-12-18T07:58:26;55.04;49.52;61.63;;
72415;Laerm;60995;52.154;4.498;2022-12-18T08:00:42;56.74;49.41;67.99;;
72415;Laerm;60995;52.154;4.498;2022-12-18T08:02:58;55.14;49.29;65.38;;
72415;Laerm;60995;52.154;4.498;2022-12-18T08:05:14;54.64;48.58;72.36;;
72415;Laerm;60995;52.154;4.498;2022-12-18T08:07:30;55.25;48.69;71.32;;
72415;Laerm;60995;52.154;4.498;2022-12-18T08:09:46;55.61;48.45;63.12;;
72415;Laerm;60995;52.154;4.498;2022-12-18T08:12:02;54.02;48.68;65.15;;
72415;Laerm;60995;52.154;4.498;2022-12-18T08:14:18;54.98;49.25;66.41;;
72415;Laerm;60995;52.154;4.498;2022-12-18T08:16:34;55.72;49.18;65.11;;
72415;Laerm;60995;52.154;4.498;2022-12-18T08:18:52;56.14;49.65;62.98;;
72415;Laerm;60995;52.154;4.498;2022-12-18T08:21:16;56.52;50.79;62.71;;
72415;Laerm;60995;52.154;4.498;2022-12-18T08:23:33;56.95;51.34;62.77;;
72415;Laerm;60995;52.154;4.498;2022-12-18T08:25:49;57.07;51.44;63.46;;
72415;Laerm;60995;52.154;4.498;2022-12-18T08:28:06;58.14;52.86;64.99;;
72415;Laerm;60995;52.154;4.498;2022-12-18T08:30:22;57.63;52.07;62.90;;
72415;Laerm;60995;52.154;4.498;2022-12-18T08:32:38;57.78;52.50;70.29;;
72415;Laerm;60995;52.154;4.498;2022-12-18T08:34:55;57.57;51.45;64.86;;
72415;Laerm;60995;52.154;4.498;2022-12-18T08:37:10;57.62;52.23;62.68;;
72415;Laerm;60995;52.154;4.498;2022-12-18T08:39:27;57.34;51.91;63.09;;
72415;Laerm;60995;52.154;4.498;2022-12-18T08:41:43;57.13;50.99;73.06;;
72415;Laerm;60995;52.154;4.498;2022-12-18T08:44:18;57.28;51.37;66.34;;
72415;Laerm;60995;52.154;4.498;2022-12-18T08:46:53;59.12;53.62;67.14;;
72415;Laerm;60995;52.154;4.498;2022-12-18T08:49:11;57.33;51.44;64.11;;
72415;Laerm;60995;52.154;4.498;2022-12-18T08:51:27;57.11;50.75;63.59;;
72415;Laerm;60995;52.154;4.498;2022-12-18T08:53:44;56.64;50.28;62.09;;
72415;Laerm;60995;52.154;4.498;2022-12-18T08:56:03;58.09;51.63;66.98;;
72415;Laerm;60995;52.154;4.498;2022-12-18T08:58:19;56.97;51.71;76.26;;
72415;Laerm;60995;52.154;4.498;2022-12-18T09:00:35;56.36;49.60;64.88;;
72415;Laerm;60995;52.154;4.498;2022-12-18T09:02:51;55.76;50.52;61.49;;
72415;Laerm;60995;52.154;4.498;2022-12-18T09:05:08;54.95;49.70;61.08;;
72415;Laerm;60995;52.154;4.498;2022-12-18T09:07:24;55.81;50.43;63.24;;
72415;Laerm;60995;52.154;4.498;2022-12-18T09:09:40;56.21;50.37;63.68;;
72415;Laerm;60995;52.154;4.498;2022-12-18T09:11:56;55.77;50.09;64.60;;
72415;Laerm;60995;52.154;4.498;2022-12-18T09:14:12;56.56;50.77;64.31;;
72415;Laerm;60995;52.154;4.498;2022-12-18T09:16:29;56.47;50.99;61.85;;
72415;Laerm;60995;52.154;4.498;2022-12-18T09:18:46;56.83;51.67;62.69;;
72415;Laerm;60995;52.154;4.498;2022-12-18T09:21:17;56.79;51.04;63.06;;
72415;Laerm;60995;52.154;4.498;2022-12-18T09:23:33;57.03;50.14;63.94;;
72415;Laerm;60995;52.154;4.498;2022-12-18T09:25:50;56.91;51.02;63.56;;
72415;Laerm;60995;52.154;4.498;2022-12-18T09:28:15;56.79;50.39;68.56;;
72415;Laerm;60995;52.154;4.498;2022-12-18T09:30:32;56.38;50.65;61.72;;
72415;Laerm;60995;52.154;4.498;2022-12-18T09:32:49;57.02;51.80;64.12;;
72415;Laerm;60995;52.154;4.498;2022-12-18T09:35:06;56.72;50.96;61.68;;
72415;Laerm;60995;52.154;4.498;2022-12-18T09:37:22;56.82;51.12;62.63;;
72415;Laerm;60995;52.154;4.498;2022-12-18T09:39:38;56.87;51.66;62.28;;
72415;Laerm;60995;52.154;4.498;2022-12-18T09:41:58;57.47;51.62;65.24;;
72415;Laerm;60995;52.154;4.498;2022-12-18T09:44:19;57.67;51.76;65.28;;
72415;Laerm;60995;52.154;4.498;2022-12-18T09:46:42;57.45;51.85;64.14;;
72415;Laerm;60995;52.154;4.498;2022-12-18T09:49:04;57.38;52.09;67.80;;
72415;Laerm;60995;52.154;4.498;2022-12-18T09:51:42;57.64;50.77;64.39;;
72415;Laerm;60995;52.154;4.498;2022-12-18T09:54:05;56.72;50.84;65.40;;
72415;Laerm;60995;52.154;4.498;2022-12-18T09:56:22;56.23;50.48;62.75;;
72415;Laerm;60995;52.154;4.498;2022-12-18T09:58:55;56.20;50.89;62.79;;
72415;Laerm;60995;52.154;4.498;2022-12-18T10:01:21;56.68;50.77;62.76;;
72415;Laerm;60995;52.154;4.498;2022-12-18T10:03:38;56.42;50.58;63.11;;
72415;Laerm;60995;52.154;4.498;2022-12-18T10:06:11;56.79;50.82;62.83;;
72415;Laerm;60995;52.154;4.498;2022-12-18T10:08:33;57.12;52.12;63.60;;
72415;Laerm;60995;52.154;4.498;2022-12-18T10:13:42;56.75;51.07;65.32;;
72415;Laerm;60995;52.154;4.498;2022-12-18T10:21:45;57.16;51.63;63.41;;
72415;Laerm;60995;52.154;4.498;2022-12-18T10:24:21;56.75;51.32;62.38;;
72415;Laerm;60995;52.154;4.498;2022-12-18T10:26:41;57.13;51.42;63.43;;
72415;Laerm;60995;52.154;4.498;2022-12-18T10:28:58;57.20;51.17;67.98;;
72415;Laerm;60995;52.154;4.498;2022-12-18T10:31:21;57.60;52.48;67.51;;
72415;Laerm;60995;52.154;4.498;2022-12-18T10:33:37;58.83;52.54;66.79;;
72415;Laerm;60995;52.154;4.498;2022-12-18T10:35:54;58.62;53.53;64.07;;
72415;Laerm;60995;52.154;4.498;2022-12-18T10:40:29;59.09;53.33;64.54;;
72415;Laerm;60995;52.154;4.498;2022-12-18T10:42:45;59.05;53.16;64.81;;
72415;Laerm;60995;52.154;4.498;2022-12-18T10:45:21;58.64;53.54;66.19;;
72415;Laerm;60995;52.154;4.498;2022-12-18T10:47:43;58.69;53.37;64.81;;
72415;Laerm;60995;52.154;4.498;2022-12-18T10:50:00;58.42;51.73;64.37;;
72415;Laerm;60995;52.154;4.498;2022-12-18T10:52:21;58.34;52.55;63.68;;
72415;Laerm;60995;52.154;4.498;2022-12-18T10:54:38;58.29;53.05;64.33;;
72415;Laerm;60995;52.154;4.498;2022-12-18T10:57:15;57.87;51.15;63.50;;
72415;Laerm;60995;52.154;4.498;2022-12-18T10:59:51;57.24;51.74;62.88;;
72415;Laerm;60995;52.154;4.498;2022-12-18T11:02:27;57.00;51.19;62.79;;
72415;Laerm;60995;52.154;4.498;2022-12-18T11:04:51;56.22;50.49;62.53;;
72415;Laerm;60995;52.154;4.498;2022-12-18T11:07:08;55.45;50.41;60.33;;
72415;Laerm;60995;52.154;4.498;2022-12-18T11:09:39;54.70;48.80;68.24;;
72415;Laerm;60995;52.154;4.498;2022-12-18T11:11:58;53.94;49.12;62.07;;
72415;Laerm;60995;52.154;4.498;2022-12-18T11:14:23;53.34;48.78;59.52;;
72415;Laerm;60995;52.154;4.498;2022-12-18T11:16:45;54.03;47.56;76.07;;
72415;Laerm;60995;52.154;4.498;2022-12-18T11:21:48;53.90;47.51;61.62;;
72415;Laerm;60995;52.154;4.498;2022-12-18T11:24:05;54.05;49.42;58.52;;
72415;Laerm;60995;52.154;4.498;2022-12-18T11:26:34;54.72;49.15;62.98;;
72415;Laerm;60995;52.154;4.498;2022-12-18T11:29:08;55.03;48.99;63.85;;
72415;Laerm;60995;52.154;4.498;2022-12-18T11:31:29;53.93;47.77;60.29;;
72415;Laerm;60995;52.154;4.498;2022-12-18T11:36:31;53.69;48.60;59.62;;
72415;Laerm;60995;52.154;4.498;2022-12-18T11:38:49;54.18;49.66;60.56;;
72415;Laerm;60995;52.154;4.498;2022-12-18T11:41:30;54.15;48.19;61.49;;
72415;Laerm;60995;52.154;4.498;2022-12-18T11:44:09;54.46;49.00;60.14;;
72415;Laerm;60995;52.154;4.498;2022-12-18T11:46:44;54.24;48.95;63.40;;
72415;Laerm;60995;52.154;4.498;2022-12-18T11:49:18;54.26;49.36;64.04;;
72415;Laerm;60995;52.154;4.498;2022-12-18T11:54:14;55.64;49.44;65.75;;
72415;Laerm;60995;52.154;4.498;2022-12-18T11:56:35;54.73;47.67;62.20;;
72415;Laerm;60995;52.154;4.498;2022-12-18T12:10:40;55.18;49.83;70.64;;
72415;Laerm;60995;52.154;4.498;2022-12-18T12:20:50;53.49;48.44;61.09;;
72415;Laerm;60995;52.154;4.498;2022-12-18T12:37:09;52.17;47.36;56.82;;
72415;Laerm;60995;52.154;4.498;2022-12-18T12:39:31;53.54;47.92;63.71;;
72415;Laerm;60995;52.154;4.498;2022-12-18T12:41:48;52.86;46.71;61.27;;
72415;Laerm;60995;52.154;4.498;2022-12-18T12:44:27;53.48;47.43;63.79;;
72415;Laerm;60995;52.154;4.498;2022-12-18T12:46:47;53.49;47.30;63.67;;
72415;Laerm;60995;52.154;4.498;2022-12-18T12:49:11;53.85;48.36;60.12;;
72415;Laerm;60995;52.154;4.498;2022-12-18T12:51:34;53.09;47.85;58.29;;
72415;Laerm;60995;52.154;4.498;2022-12-18T12:53:51;53.11;47.14;63.22;;
72415;Laerm;60995;52.154;4.498;2022-12-18T12:56:11;52.22;47.29;61.19;;
72415;Laerm;60995;52.154;4.498;2022-12-18T12:58:36;53.12;47.58;63.00;;
72415;Laerm;60995;52.154;4.498;2022-12-18T13:01:04;53.58;47.56;59.79;;
72415;Laerm;60995;52.154;4.498;2022-12-18T13:03:46;52.73;48.02;64.23;;
72415;Laerm;60995;52.154;4.498;2022-12-18T13:06:16;55.63;48.90;81.03;;
72415;Laerm;60995;52.154;4.498;2022-12-18T13:08:56;53.42;48.95;65.11;;
72415;Laerm;60995;52.154;4.498;2022-12-18T13:11:49;52.88;47.18;64.05;;
72415;Laerm;60995;52.154;4.498;2022-12-18T13:16:44;53.89;48.98;63.77;;
72415;Laerm;60995;52.154;4.498;2022-12-18T13:19:00;53.43;48.07;62.67;;
72415;Laerm;60995;52.154;4.498;2022-12-18T13:21:32;53.46;48.59;62.61;;
72415;Laerm;60995;52.154;4.498;2022-12-18T13:23:49;54.67;49.98;59.71;;
72415;Laerm;60995;52.154;4.498;2022-12-18T13:31:01;53.45;48.99;58.58;;
72415;Laerm;60995;52.154;4.498;2022-12-18T13:37:54;54.23;49.72;59.87;;
72415;Laerm;60995;52.154;4.498;2022-12-18T13:42:54;54.15;49.14;63.85;;
72415;Laerm;60995;52.154;4.498;2022-12-18T13:45:41;54.49;49.83;59.71;;
72415;Laerm;60995;52.154;4.498;2022-12-18T13:47:58;53.42;48.64;69.51;;
72415;Laerm;60995;52.154;4.498;2022-12-18T13:50:23;53.53;48.07;58.99;;
72415;Laerm;60995;52.154;4.498;2022-12-18T13:52:43;53.97;48.81;59.79;;
72415;Laerm;60995;52.154;4.498;2022-12-18T13:55:01;54.49;49.48;58.70;;
72415;Laerm;60995;52.154;4.498;2022-12-18T13:57:28;54.55;49.81;63.01;;
72415;Laerm;60995;52.154;4.498;2022-12-18T13:59:44;54.99;50.29;60.32;;
72415;Laerm;60995;52.154;4.498;2022-12-18T14:02:12;54.54;49.70;61.65;;
72415;Laerm;60995;52.154;4.498;2022-12-18T14:04:31;53.32;48.06;62.42;;
72415;Laerm;60995;52.154;4.498;2022-12-18T14:06:51;54.32;49.45;70.17;;
72415;Laerm;60995;52.154;4.498;2022-12-18T14:09:22;55.48;49.96;73.18;;
72415;Laerm;60995;52.154;4.498;2022-12-18T14:11:39;55.11;49.94;69.02;;
72415;Laerm;60995;52.154;4.498;2022-12-18T14:13:56;55.79;50.19;74.54;;
72415;Laerm;60995;52.154;4.498;2022-12-18T14:16:14;55.37;49.86;65.39;;
72415;Laerm;60995;52.154;4.498;2022-12-18T14:18:55;54.61;49.63;62.39;;
72415;Laerm;60995;52.154;4.498;2022-12-18T14:21:28;54.26;49.76;63.43;;
72415;Laerm;60995;52.154;4.498;2022-12-18T14:23:45;53.65;48.81;63.62;;
72415;Laerm;60995;52.154;4.498;2022-12-18T14:26:03;53.52;48.69;59.97;;